createdAt,value
2023-04-04T22:42:52.640Z,3.50
2023-04-04T22:43:52.598Z,4.50
2023-04-04T22:44:52.597Z,4.40
2023-04-04T22:45:52.616Z,4.80
2023-04-04T22:46:52.585Z,5.00
2023-04-04T22:47:52.655Z,5.50
2023-04-04T22:48:52.553Z,4.60
2023-04-04T22:49:52.531Z,5.10
2023-04-04T22:50:52.523Z,4.70
2023-04-04T22:51:52.514Z,4.80
2023-04-04T22:52:52.516Z,5.10
2023-04-04T22:53:52.516Z,5.00
2023-04-04T22:54:52.492Z,4.70
2023-04-04T22:55:52.479Z,4.90
2023-04-04T22:56:52.464Z,4.60
2023-04-04T22:57:52.448Z,4.80
2023-04-04T22:58:52.514Z,5.10
2023-04-04T22:59:52.429Z,4.80
2023-04-04T23:00:52.470Z,4.60
2023-04-04T23:01:52.427Z,4.80
2023-04-04T23:02:52.435Z,4.70
2023-04-04T23:03:52.451Z,5.00
2023-04-04T23:04:52.405Z,4.50
2023-04-04T23:05:52.359Z,4.90
2023-04-04T23:06:52.363Z,4.60
2023-04-04T23:07:52.340Z,4.60
2023-04-04T23:08:52.340Z,4.40
2023-04-04T23:09:52.337Z,4.50
2023-04-04T23:10:52.310Z,4.80
2023-04-04T23:11:52.293Z,4.50
2023-04-04T23:12:52.289Z,4.40
2023-04-04T23:13:52.284Z,4.00
2023-04-04T23:14:52.296Z,4.30
2023-04-04T23:15:52.353Z,4.40
2023-04-04T23:16:52.263Z,4.20
2023-04-04T23:17:52.267Z,4.20
2023-04-04T23:18:52.219Z,4.00
2023-04-04T23:19:52.206Z,3.70
2023-04-04T23:20:52.213Z,4.40
2023-04-04T23:21:52.231Z,3.90
2023-04-04T23:22:52.185Z,3.90
2023-04-04T23:23:52.196Z,3.80
2023-04-04T23:24:52.179Z,3.90
2023-04-04T23:25:52.136Z,3.60
2023-04-04T23:26:52.132Z,3.70
2023-04-04T23:27:52.129Z,3.90
2023-04-04T23:28:52.114Z,3.70
2023-04-04T23:29:52.133Z,3.80
2023-04-04T23:30:52.132Z,3.60
2023-04-04T23:31:52.072Z,2.90
2023-04-04T23:32:52.143Z,3.30
2023-04-04T23:33:52.052Z,3.20
2023-04-04T23:34:52.048Z,3.40
2023-04-04T23:35:52.058Z,3.80
2023-04-04T23:36:52.025Z,3.70
2023-04-04T23:37:52.020Z,3.20
2023-04-04T23:38:52.004Z,3.30
2023-04-04T23:39:51.990Z,3.20
2023-04-04T23:40:51.990Z,3.50
2023-04-04T23:41:51.968Z,3.30
2023-04-04T23:42:51.969Z,3.60
2023-04-04T23:43:51.941Z,3.30
2023-04-04T23:44:51.949Z,3.20
2023-04-04T23:45:51.922Z,3.10
2023-04-04T23:46:52.026Z,3.40
2023-04-04T23:47:51.958Z,3.10
2023-04-04T23:48:51.896Z,3.60
2023-04-04T23:49:51.881Z,3.40
2023-04-04T23:50:51.875Z,2.80
2023-04-04T23:51:52.572Z,3.50
2023-04-04T23:52:51.858Z,3.40
2023-04-04T23:53:51.841Z,2.90
2023-04-04T23:54:51.840Z,3.40
2023-04-04T23:55:51.829Z,3.80
2023-04-04T23:56:51.803Z,3.20
2023-04-04T23:57:51.794Z,3.30
2023-04-04T23:58:51.850Z,3.10
2023-04-04T23:59:51.767Z,3.90
